Time;durP1;ratioP1;P1;durP2;ratioP2;P2;SDS_P1;SDS_P2;PMS_P1;PMS_P2;Temp;Humidity;BMP_temperature;BMP_pressure;BME280_temperature;BME280_humidity;BME280_pressure;Samples;Min_cycle;Max_cycle;Signal;HPM_P1;HPM_P2
2022/08/23 00:01:49;;;;;;;1.92;1.70;;;;;;;;;;5064271;28;20369;-69
2022/08/23 00:04:16;;;;;;;2.60;1.75;;;;;;;;;;5064188;28;20201;-69
2022/08/23 00:06:43;;;;;;;1.95;1.70;;;;;;;;;;5063228;28;20375;-69
2022/08/23 00:09:10;;;;;;;2.20;2.00;;;;;;;;;;5064245;28;20193;-69
2022/08/23 00:11:39;;;;;;;3.38;1.80;;;;;;;;;;5064186;28;20197;-69
2022/08/23 00:14:07;;;;;;;1.88;1.77;;;;;;;;;;5064063;28;20196;-69
2022/08/23 00:16:35;;;;;;;3.67;1.70;;;;;;;;;;5063826;28;20197;-69
2022/08/23 00:19:01;;;;;;;4.40;2.15;;;;;;;;;;5064205;28;20212;-69
2022/08/23 00:21:29;;;;;;;2.03;1.85;;;;;;;;;;5064076;28;20205;-69
2022/08/23 00:23:55;;;;;;;3.45;1.98;;;;;;;;;;5064000;28;20280;-69
2022/08/23 00:26:21;;;;;;;2.20;2.00;;;;;;;;;;5063501;28;20235;-69
2022/08/23 00:28:48;;;;;;;2.42;1.70;;;;;;;;;;5063609;28;20193;-69
2022/08/23 00:31:14;;;;;;;2.20;2.00;;;;;;;;;;5064127;28;20517;-69
2022/08/23 00:33:42;;;;;;;2.17;2.08;;;;;;;;;;5063493;28;20201;-69
2022/08/23 00:36:08;;;;;;;1.92;1.90;;;;;;;;;;5063587;28;20307;-69
2022/08/23 00:38:34;;;;;;;4.32;2.30;;;;;;;;;;5063564;28;20274;-69
2022/08/23 00:41:01;;;;;;;2.42;1.85;;;;;;;;;;5063536;28;20202;-69
2022/08/23 00:49:01;;;;;;;1.83;1.73;;;;;;;;;;5063411;28;20220;-69
2022/08/23 00:51:30;;;;;;;5.28;2.47;;;;;;;;;;5063354;28;20197;-69
2022/08/23 00:53:59;;;;;;;7.03;2.08;;;;;;;;;;5063206;28;20201;-69
2022/08/23 00:56:26;;;;;;;2.45;2.15;;;;;;;;;;5062836;28;20304;-69
2022/08/23 00:58:52;;;;;;;3.50;1.92;;;;;;;;;;5063253;28;20563;-69
2022/08/23 01:01:18;;;;;;;2.35;2.15;;;;;;;;;;5063146;28;20267;-69
2022/08/23 01:03:49;;;;;;;3.50;1.65;;;;;;;;;;5062961;28;20205;-69
2022/08/23 01:06:19;;;;;;;2.45;2.25;;;;;;;;;;5062799;28;20217;-69
2022/08/23 01:08:54;;;;;;;2.30;2.10;;;;;;;;;;5063012;28;20462;-69
2022/08/23 01:11:23;;;;;;;3.03;2.28;;;;;;;;;;5063143;28;20184;-69
2022/08/23 01:13:52;;;;;;;2.20;2.00;;;;;;;;;;5063007;28;20197;-69
2022/08/23 01:16:21;;;;;;;3.70;1.85;;;;;;;;;;5062623;28;20504;-69
2022/08/23 01:18:48;;;;;;;4.13;2.03;;;;;;;;;;5062002;28;20223;-69
2022/08/23 01:21:17;;;;;;;2.40;1.83;;;;;;;;;;5062734;28;20212;-69
2022/08/23 01:23:46;;;;;;;1.95;1.80;;;;;;;;;;5062572;28;20197;-69
2022/08/23 01:26:14;;;;;;;2.97;2.00;;;;;;;;;;5062541;28;20251;-69
2022/08/23 01:28:40;;;;;;;2.45;2.22;;;;;;;;;;5062234;28;20200;-69
2022/08/23 01:31:07;;;;;;;2.35;1.95;;;;;;;;;;5062596;28;20226;-69
2022/08/23 01:33:34;;;;;;;1.98;1.90;;;;;;;;;;5062566;28;20204;-69
2022/08/23 01:36:01;;;;;;;2.80;1.92;;;;;;;;;;5062846;28;20197;-69
2022/08/23 01:38:27;;;;;;;2.78;1.90;;;;;;;;;;5062303;28;20310;-69
2022/08/23 01:40:54;;;;;;;2.55;1.90;;;;;;;;;;5061836;28;20204;-69
2022/08/23 01:43:22;;;;;;;1.90;1.80;;;;;;;;;;5062344;28;20196;-69
2022/08/23 01:45:49;;;;;;;1.90;1.80;;;;;;;;;;5062215;28;20205;-69
2022/08/23 01:48:15;;;;;;;3.72;1.80;;;;;;;;;;5062133;28;20208;-69
2022/08/23 01:50:42;;;;;;;1.95;1.77;;;;;;;;;;5062514;28;20204;-69
2022/08/23 01:53:08;;;;;;;1.90;1.80;;;;;;;;;;5062310;28;20201;-69
2022/08/23 01:55:35;;;;;;;4.55;1.77;;;;;;;;;;5062095;28;20205;-69
2022/08/23 01:58:04;;;;;;;2.22;2.03;;;;;;;;;;5062320;28;20221;-69
2022/08/23 02:00:31;;;;;;;2.03;1.92;;;;;;;;;;5062085;28;20284;-69
2022/08/23 02:02:58;;;;;;;1.77;1.65;;;;;;;;;;5062359;28;20264;-69
2022/08/23 02:05:24;;;;;;;2.42;1.90;;;;;;;;;;5062144;28;20221;-69
2022/08/23 02:07:50;;;;;;;2.80;2.00;;;;;;;;;;5061905;28;20197;-69
2022/08/23 02:10:17;;;;;;;2.20;2.00;;;;;;;;;;5062497;28;20197;-69
2022/08/23 02:12:45;;;;;;;3.28;2.28;;;;;;;;;;5061901;28;20204;-69
2022/08/23 02:15:13;;;;;;;2.50;2.30;;;;;;;;;;5062077;28;20450;-69
2022/08/23 02:17:39;;;;;;;2.15;2.00;;;;;;;;;;5061861;28;20201;-69
2022/08/23 02:20:06;;;;;;;2.75;2.10;;;;;;;;;;5061817;28;20220;-69
2022/08/23 02:22:32;;;;;;;2.67;2.50;;;;;;;;;;5061951;28;20405;-69
2022/08/23 02:24:59;;;;;;;3.03;2.40;;;;;;;;;;5061915;28;20193;-69
2022/08/23 02:27:25;;;;;;;2.30;2.20;;;;;;;;;;5061573;28;20203;-69
2022/08/23 02:29:51;;;;;;;3.95;2.38;;;;;;;;;;5062630;28;20199;-69
2022/08/23 02:32:19;;;;;;;5.57;2.58;;;;;;;;;;5066111;28;20211;-69
2022/08/23 02:34:46;;;;;;;3.67;2.30;;;;;;;;;;5066132;28;20197;-69
2022/08/23 02:37:13;;;;;;;3.70;2.25;;;;;;;;;;5065615;28;20204;-69
2022/08/23 02:39:39;;;;;;;2.53;2.40;;;;;;;;;;5065649;28;20220;-69
2022/08/23 02:42:06;;;;;;;2.55;2.35;;;;;;;;;;5065721;28;20201;-69
2022/08/23 02:44:33;;;;;;;5.05;2.25;;;;;;;;;;5065855;28;20205;-69
2022/08/23 02:46:59;;;;;;;3.60;2.22;;;;;;;;;;5065554;28;20242;-69
2022/08/23 02:49:27;;;;;;;2.42;2.33;;;;;;;;;;5065572;28;20255;-69
2022/08/23 02:51:53;;;;;;;2.65;2.45;;;;;;;;;;5065609;28;20243;-69
2022/08/23 02:54:20;;;;;;;2.45;2.30;;;;;;;;;;5065404;28;20448;-69
2022/08/23 02:56:46;;;;;;;2.78;2.38;;;;;;;;;;5065232;28;20521;-69
2022/08/23 02:59:12;;;;;;;6.45;2.40;;;;;;;;;;5065635;28;20454;-69
2022/08/23 03:01:39;;;;;;;2.38;2.28;;;;;;;;;;5065520;28;20197;-69
2022/08/23 03:04:06;;;;;;;6.18;2.33;;;;;;;;;;5065407;28;20197;-69
2022/08/23 03:06:34;;;;;;;2.42;2.10;;;;;;;;;;5065010;28;20263;-69
2022/08/23 03:09:00;;;;;;;2.10;1.90;;;;;;;;;;5065222;28;20193;-69
2022/08/23 03:11:27;;;;;;;2.47;2.10;;;;;;;;;;5065241;28;20201;-69
2022/08/23 03:13:55;;;;;;;3.70;2.67;;;;;;;;;;5065299;28;20228;-69
2022/08/23 03:16:21;;;;;;;2.53;2.42;;;;;;;;;;5065028;28;20205;-69
2022/08/23 03:18:48;;;;;;;2.88;2.70;;;;;;;;;;5064951;28;20225;-69
2022/08/23 03:21:15;;;;;;;3.28;3.00;;;;;;;;;;5065107;28;20508;-69
2022/08/23 03:23:42;;;;;;;3.40;2.95;;;;;;;;;;5064930;28;20204;-69
2022/08/23 03:26:10;;;;;;;3.13;2.90;;;;;;;;;;5064986;28;20516;-69
2022/08/23 03:28:37;;;;;;;3.53;3.22;;;;;;;;;;5064961;28;20197;-69
2022/08/23 03:31:04;;;;;;;4.43;3.38;;;;;;;;;;5064989;28;20196;-69
2022/08/23 03:33:30;;;;;;;3.30;3.10;;;;;;;;;;5065272;28;20197;-69
2022/08/23 03:35:57;;;;;;;4.80;3.25;;;;;;;;;;5064587;28;20197;-69
2022/08/23 03:38:24;;;;;;;4.22;3.33;;;;;;;;;;5064461;28;20204;-69
2022/08/23 03:40:52;;;;;;;4.75;3.10;;;;;;;;;;5064677;28;20223;-69
2022/08/23 03:43:19;;;;;;;3.90;3.53;;;;;;;;;;5063921;28;20197;-69
2022/08/23 03:45:45;;;;;;;6.93;3.03;;;;;;;;;;5064644;28;20533;-69
2022/08/23 03:48:11;;;;;;;3.30;3.10;;;;;;;;;;5064349;28;20200;-69
2022/08/23 03:50:38;;;;;;;4.05;2.97;;;;;;;;;;5064423;28;20193;-69
2022/08/23 03:53:04;;;;;;;3.50;3.28;;;;;;;;;;5064584;28;20207;-69
2022/08/23 03:55:31;;;;;;;3.42;3.17;;;;;;;;;;5064482;28;20504;-69
2022/08/23 03:57:58;;;;;;;3.75;3.38;;;;;;;;;;5064267;28;20206;-69
2022/08/23 04:00:25;;;;;;;4.28;3.20;;;;;;;;;;5064313;28;20221;-69
2022/08/23 04:02:51;;;;;;;2.88;2.78;;;;;;;;;;5064286;28;20201;-69
2022/08/23 04:05:17;;;;;;;2.97;2.78;;;;;;;;;;5064023;28;20221;-69
2022/08/23 04:07:44;;;;;;;3.50;3.20;;;;;;;;;;5064073;28;20428;-69
2022/08/23 04:10:13;;;;;;;3.17;3.05;;;;;;;;;;5064260;28;20442;-69
2022/08/23 04:12:40;;;;;;;3.67;3.40;;;;;;;;;;5064178;28;20197;-69
2022/08/23 04:15:08;;;;;;;5.88;3.00;;;;;;;;;;5064536;28;20513;-69
2022/08/23 04:17:35;;;;;;;3.88;2.90;;;;;;;;;;5063684;28;20260;-68
2022/08/23 04:20:01;;;;;;;3.10;3.00;;;;;;;;;;5064107;28;20236;-68
2022/08/23 04:22:27;;;;;;;4.43;3.00;;;;;;;;;;5064068;28;20453;-67
2022/08/23 04:24:54;;;;;;;3.45;3.05;;;;;;;;;;5063963;28;20427;-67
2022/08/23 04:27:21;;;;;;;5.07;2.75;;;;;;;;;;5063518;28;20264;-67
2022/08/23 04:29:47;;;;;;;3.95;2.85;;;;;;;;;;5063653;28;20205;-67
2022/08/23 04:32:14;;;;;;;3.83;2.90;;;;;;;;;;5063615;28;20532;-68
2022/08/23 04:34:41;;;;;;;2.92;2.67;;;;;;;;;;5063836;28;20445;-68
2022/08/23 04:37:08;;;;;;;3.53;2.75;;;;;;;;;;5063492;28;20523;-68
2022/08/23 04:42:16;;;;;;;4.93;2.65;;;;;;;;;;5063417;28;20410;-68
2022/08/23 04:42:22;;;;;;;2.92;2.70;;;;;;;;;;5063303;28;20224;-68
2022/08/23 04:44:48;;;;;;;3.05;2.78;;;;;;;;;;5063449;28;20515;-68
2022/08/23 04:47:16;;;;;;;4.05;3.10;;;;;;;;;;5063506;28;20513;-68
2022/08/23 04:49:42;;;;;;;2.90;2.80;;;;;;;;;;5063610;28;20538;-68
2022/08/23 04:52:09;;;;;;;3.05;2.85;;;;;;;;;;5063468;28;20508;-67
2022/08/23 04:54:35;;;;;;;2.95;2.67;;;;;;;;;;5063325;28;20400;-68
2022/08/23 04:57:01;;;;;;;5.55;3.10;;;;;;;;;;5062853;28;20285;-68
2022/08/23 04:59:28;;;;;;;5.25;3.40;;;;;;;;;;5062967;28;20220;-67
2022/08/23 05:01:54;;;;;;;4.70;3.00;;;;;;;;;;5063063;28;20232;-67
2022/08/23 05:04:22;;;;;;;3.75;3.30;;;;;;;;;;5063264;28;20197;-68
2022/08/23 05:06:48;;;;;;;4.35;3.28;;;;;;;;;;5062649;28;20224;-67
2022/08/23 05:09:14;;;;;;;3.83;3.50;;;;;;;;;;5062964;28;20201;-68
2022/08/23 05:11:40;;;;;;;3.63;3.38;;;;;;;;;;5063296;28;20197;-68
2022/08/23 05:14:07;;;;;;;4.03;3.30;;;;;;;;;;5062650;28;20251;-67
2022/08/23 05:16:33;;;;;;;5.18;3.40;;;;;;;;;;5062447;28;20219;-67
2022/08/23 05:18:59;;;;;;;3.90;3.45;;;;;;;;;;5062138;28;20204;-68
2022/08/23 05:21:27;;;;;;;4.20;3.67;;;;;;;;;;5062625;28;20197;-67
2022/08/23 05:23:53;;;;;;;3.85;3.53;;;;;;;;;;5062444;28;20197;-67
2022/08/23 05:26:19;;;;;;;6.82;3.42;;;;;;;;;;5061984;28;20373;-67
2022/08/23 05:28:46;;;;;;;4.22;3.83;;;;;;;;;;5062187;28;20527;-68
2022/08/23 05:31:15;;;;;;;3.80;3.55;;;;;;;;;;5062439;28;20201;-68
2022/08/23 05:33:42;;;;;;;3.88;3.58;;;;;;;;;;5062611;28;20213;-68
2022/08/23 05:36:09;;;;;;;5.05;3.88;;;;;;;;;;5058446;28;20251;-68
2022/08/23 05:38:37;;;;;;;3.75;3.55;;;;;;;;;;5048088;28;20421;-68
2022/08/23 05:41:03;;;;;;;10.45;4.30;;;;;;;;;;5055298;28;20233;-69
2022/08/23 05:43:30;;;;;;;6.78;3.75;;;;;;;;;;5056868;28;20216;-68
2022/08/23 05:46:01;;;;;;;7.07;3.30;;;;;;;;;;5055918;28;20220;-68
2022/08/23 05:48:27;;;;;;;6.78;3.70;;;;;;;;;;5036287;28;20213;-67
2022/08/23 05:50:54;;;;;;;5.05;3.85;;;;;;;;;;5035573;28;20209;-68
2022/08/23 05:53:20;;;;;;;7.57;4.10;;;;;;;;;;5034493;28;20220;-68
2022/08/23 05:55:47;;;;;;;11.70;4.88;;;;;;;;;;5036640;28;20233;-68
2022/08/23 05:58:14;;;;;;;6.47;4.20;;;;;;;;;;5033750;28;20214;-68
2022/08/23 06:00:40;;;;;;;6.32;4.38;;;;;;;;;;5046748;28;20256;-68
2022/08/23 06:03:07;;;;;;;9.85;4.38;;;;;;;;;;5034677;28;20224;-68
2022/08/23 06:05:33;;;;;;;5.00;3.97;;;;;;;;;;5033528;28;20229;-68
2022/08/23 06:07:59;;;;;;;3.97;3.67;;;;;;;;;;5040414;28;20255;-68
2022/08/23 06:10:26;;;;;;;4.45;3.67;;;;;;;;;;5052692;28;20215;-68
2022/08/23 06:12:53;;;;;;;7.78;3.47;;;;;;;;;;5053233;28;20402;-68
2022/08/23 06:15:19;;;;;;;8.70;3.53;;;;;;;;;;5034053;28;20245;-68
2022/08/23 06:17:46;;;;;;;7.75;4.68;;;;;;;;;;5038438;28;20236;-68
2022/08/23 06:20:14;;;;;;;5.78;4.65;;;;;;;;;;5053381;28;20623;-69
2022/08/23 06:22:40;;;;;;;9.70;4.60;;;;;;;;;;5053906;28;20251;-64
2022/08/23 06:25:07;;;;;;;8.60;4.78;;;;;;;;;;5053767;28;20213;-64
2022/08/23 06:27:34;;;;;;;9.88;4.70;;;;;;;;;;5052751;28;20822;-62
2022/08/23 06:30:01;;;;;;;9.63;4.57;;;;;;;;;;5045226;28;20548;-63
2022/08/23 06:32:27;;;;;;;10.32;4.25;;;;;;;;;;5042238;28;20216;-62
2022/08/23 06:34:54;;;;;;;10.93;4.40;;;;;;;;;;5047946;28;20251;-64
2022/08/23 06:37:20;;;;;;;7.13;4.10;;;;;;;;;;5045071;28;20213;-64
2022/08/23 06:39:46;;;;;;;9.73;4.60;;;;;;;;;;5053341;28;20243;-64
2022/08/23 06:42:13;;;;;;;8.88;4.28;;;;;;;;;;5053765;28;20217;-63
2022/08/23 06:44:39;;;;;;;5.65;3.90;;;;;;;;;;5054142;28;20220;-64
2022/08/23 06:47:07;;;;;;;7.18;3.45;;;;;;;;;;5052735;28;20478;-63
2022/08/23 06:49:34;;;;;;;12.98;4.70;;;;;;;;;;5053422;28;20685;-64
2022/08/23 06:52:03;;;;;;;14.48;4.13;;;;;;;;;;5041787;28;20528;-63
2022/08/23 06:54:32;;;;;;;7.45;3.95;;;;;;;;;;5036175;28;20509;-64
2022/08/23 06:56:59;;;;;;;11.75;4.50;;;;;;;;;;5052513;28;20228;-63
2022/08/23 06:59:25;;;;;;;20.38;4.45;;;;;;;;;;5052547;28;20220;-63
2022/08/23 07:01:54;;;;;;;16.98;4.45;;;;;;;;;;5052650;28;20550;-63
2022/08/23 07:04:23;;;;;;;8.73;4.05;;;;;;;;;;5047764;28;20210;-63
2022/08/23 07:06:49;;;;;;;6.97;3.45;;;;;;;;;;5032281;28;20230;-64
2022/08/23 07:09:16;;;;;;;10.07;4.30;;;;;;;;;;5032515;28;20214;-63
2022/08/23 07:11:42;;;;;;;22.00;4.10;;;;;;;;;;5045859;28;20214;-64
2022/08/23 07:14:10;;;;;;;9.85;3.75;;;;;;;;;;5041398;28;20213;-64
2022/08/23 07:16:37;;;;;;;6.45;4.00;;;;;;;;;;5041974;28;20260;-63
2022/08/23 07:19:04;;;;;;;4.88;3.20;;;;;;;;;;5035978;28;20217;-64
2022/08/23 07:21:32;;;;;;;8.43;3.83;;;;;;;;;;5039101;28;20480;-64
2022/08/23 07:23:58;;;;;;;5.18;3.60;;;;;;;;;;5056769;28;20430;-64
2022/08/23 07:26:25;;;;;;;7.25;3.42;;;;;;;;;;5056469;28;20536;-64
2022/08/23 07:28:51;;;;;;;5.43;3.65;;;;;;;;;;5055900;28;20213;-64
2022/08/23 07:31:19;;;;;;;6.03;3.95;;;;;;;;;;5055426;28;20405;-64
2022/08/23 07:33:45;;;;;;;6.03;3.58;;;;;;;;;;5035986;28;20214;-63
2022/08/23 07:36:13;;;;;;;7.88;3.50;;;;;;;;;;5048815;28;20497;-64
2022/08/23 07:38:41;;;;;;;3.67;3.15;;;;;;;;;;5056091;28;20258;-64
2022/08/23 07:41:07;;;;;;;7.22;3.25;;;;;;;;;;5052382;28;20233;-64
2022/08/23 07:43:34;;;;;;;7.18;3.42;;;;;;;;;;5044910;28;20213;-64
2022/08/23 07:46:00;;;;;;;3.65;2.75;;;;;;;;;;5043103;28;20376;-64
2022/08/23 07:48:27;;;;;;;3.03;2.83;;;;;;;;;;5056293;28;20548;-64
2022/08/23 07:50:53;;;;;;;5.88;2.92;;;;;;;;;;5056460;28;20209;-65
2022/08/23 07:53:20;;;;;;;3.00;2.70;;;;;;;;;;5050054;28;20232;-64
2022/08/23 07:55:48;;;;;;;3.88;3.10;;;;;;;;;;5035612;28;20248;-64
2022/08/23 07:58:14;;;;;;;5.55;2.95;;;;;;;;;;5035105;28;20213;-64
2022/08/23 08:00:41;;;;;;;3.88;3.28;;;;;;;;;;5052192;28;20225;-64
2022/08/23 08:03:08;;;;;;;4.20;2.63;;;;;;;;;;5036198;28;20220;-64
2022/08/23 08:05:34;;;;;;;7.07;3.40;;;;;;;;;;5035098;28;20238;-64
2022/08/23 08:08:01;;;;;;;3.60;2.75;;;;;;;;;;5035505;28;20213;-64
2022/08/23 08:10:28;;;;;;;4.97;3.80;;;;;;;;;;5042295;28;20205;-64
2022/08/23 08:12:56;;;;;;;5.13;2.83;;;;;;;;;;5035942;28;20218;-65
2022/08/23 08:15:22;;;;;;;6.68;3.33;;;;;;;;;;5040724;28;20219;-64
2022/08/23 08:17:49;;;;;;;4.43;2.60;;;;;;;;;;5055202;28;20213;-64
2022/08/23 08:20:16;;;;;;;2.30;2.10;;;;;;;;;;5054808;28;20224;-64
2022/08/23 08:22:42;;;;;;;4.15;3.00;;;;;;;;;;5055279;28;20415;-65
2022/08/23 08:25:09;;;;;;;3.92;2.97;;;;;;;;;;5052525;28;20401;-65
2022/08/23 08:27:36;;;;;;;5.35;2.92;;;;;;;;;;5044949;28;20205;-65
2022/08/23 08:30:04;;;;;;;4.75;2.50;;;;;;;;;;5035592;28;20217;-63
2022/08/23 08:32:30;;;;;;;6.63;3.00;;;;;;;;;;5036983;28;20233;-63
2022/08/23 08:34:57;;;;;;;3.22;2.92;;;;;;;;;;5034653;28;20220;-63
2022/08/23 08:37:23;;;;;;;3.75;2.40;;;;;;;;;;5034988;28;20462;-63
2022/08/23 08:39:49;;;;;;;2.80;2.50;;;;;;;;;;5035025;28;20213;-63
2022/08/23 08:42:22;;;;;;;3.83;2.95;;;;;;;;;;5034614;28;20209;-62
2022/08/23 08:44:51;;;;;;;2.78;2.58;;;;;;;;;;5035201;28;20289;-63
2022/08/23 08:47:20;;;;;;;6.97;2.40;;;;;;;;;;5043808;28;20307;-64
2022/08/23 08:49:49;;;;;;;4.65;2.33;;;;;;;;;;5055572;28;20856;-63
2022/08/23 08:52:17;;;;;;;7.13;3.75;;;;;;;;;;5055404;28;20212;-64
2022/08/23 08:54:45;;;;;;;5.10;2.65;;;;;;;;;;5054971;28;20212;-63
2022/08/23 08:57:13;;;;;;;3.33;2.53;;;;;;;;;;5053801;28;20216;-64
2022/08/23 08:59:45;;;;;;;2.63;2.42;;;;;;;;;;5048148;28;20221;-63
2022/08/23 09:02:15;;;;;;;4.22;2.90;;;;;;;;;;5046829;28;20431;-64
2022/08/23 09:04:43;;;;;;;3.45;1.90;;;;;;;;;;5051476;28;20209;-63
2022/08/23 09:07:11;;;;;;;4.03;1.77;;;;;;;;;;5054394;28;20212;-64
2022/08/23 09:09:48;;;;;;;3.30;2.10;;;;;;;;;;5038480;28;20213;-64
2022/08/23 09:12:20;;;;;;;1.40;1.30;;;;;;;;;;5051643;28;20214;-62
2022/08/23 09:14:52;;;;;;;2.22;1.77;;;;;;;;;;5054503;28;20279;-63
2022/08/23 09:17:20;;;;;;;4.57;2.88;;;;;;;;;;5040123;28;20217;-63
2022/08/23 09:19:49;;;;;;;3.45;1.42;;;;;;;;;;5035150;28;20213;-63
2022/08/23 09:22:18;;;;;;;2.15;1.88;;;;;;;;;;5041244;28;20493;-63
2022/08/23 09:24:45;;;;;;;2.67;1.70;;;;;;;;;;5034705;28;20440;-63
2022/08/23 09:27:11;;;;;;;7.10;3.70;;;;;;;;;;5038612;28;20517;-63
2022/08/23 09:29:38;;;;;;;4.35;2.05;;;;;;;;;;5054869;28;20266;-62
2022/08/23 09:32:07;;;;;;;1.75;1.65;;;;;;;;;;5046878;28;20205;-62
2022/08/23 09:34:41;;;;;;;3.42;1.73;;;;;;;;;;5034246;28;20213;-63
2022/08/23 09:37:14;;;;;;;2.28;1.58;;;;;;;;;;5050893;28;20208;-63
2022/08/23 09:39:42;;;;;;;2.92;1.63;;;;;;;;;;5050505;28;20213;-63
2022/08/23 09:42:09;;;;;;;4.03;1.77;;;;;;;;;;5055307;28;20312;-63
2022/08/23 09:44:36;;;;;;;1.67;1.50;;;;;;;;;;5045528;28;20213;-63
2022/08/23 09:47:07;;;;;;;3.42;1.60;;;;;;;;;;5053806;28;20211;-63
2022/08/23 09:49:33;;;;;;;7.25;2.00;;;;;;;;;;5054037;28;20219;-63
2022/08/23 09:52:01;;;;;;;1.50;1.40;;;;;;;;;;5054143;28;20478;-63
2022/08/23 09:54:30;;;;;;;8.50;1.95;;;;;;;;;;5053722;28;20398;-63
2022/08/23 09:56:58;;;;;;;1.48;1.38;;;;;;;;;;5053582;28;20278;-63
2022/08/23 09:59:33;;;;;;;3.67;3.28;;;;;;;;;;5042973;28;20285;-63
2022/08/23 10:02:01;;;;;;;6.70;1.65;;;;;;;;;;5049008;28;20331;-64
2022/08/23 10:04:31;;;;;;;4.20;1.60;;;;;;;;;;5053705;28;20213;-64
2022/08/23 10:06:57;;;;;;;5.60;1.90;;;;;;;;;;5053383;28;20550;-64
2022/08/23 10:09:25;;;;;;;2.60;1.98;;;;;;;;;;5053179;28;20409;-65
2022/08/23 10:11:53;;;;;;;6.97;2.22;;;;;;;;;;5053492;28;20208;-64
2022/08/23 10:14:21;;;;;;;3.88;1.60;;;;;;;;;;5053497;28;20444;-64
2022/08/23 10:16:54;;;;;;;1.58;1.40;;;;;;;;;;5053230;28;20223;-63
2022/08/23 10:19:25;;;;;;;5.70;1.60;;;;;;;;;;5035945;28;20521;-64
2022/08/23 10:21:56;;;;;;;4.68;1.52;;;;;;;;;;5051853;28;20224;-64
2022/08/23 10:24:27;;;;;;;4.60;1.45;;;;;;;;;;5053698;28;20381;-64
2022/08/23 10:29:35;;;;;;;4.07;1.40;;;;;;;;;;5053503;28;20431;-63
2022/08/23 10:29:55;;;;;;;1.83;1.30;;;;;;;;;;5044099;28;20312;-64
2022/08/23 10:32:25;;;;;;;7.18;1.40;;;;;;;;;;5035487;28;20453;-64
2022/08/23 10:34:58;;;;;;;1.95;1.40;;;;;;;;;;5051418;28;20216;-65
2022/08/23 10:37:34;;;;;;;1.52;1.42;;;;;;;;;;5048917;28;20204;-66
2022/08/23 10:40:03;;;;;;;3.42;1.55;;;;;;;;;;5053683;28;20748;-63
2022/08/23 10:42:37;;;;;;;5.03;1.60;;;;;;;;;;5050547;28;20598;-64
2022/08/23 10:45:08;;;;;;;1.08;1.02;;;;;;;;;;5035933;28;20213;-64
2022/08/23 10:47:36;;;;;;;4.57;1.30;;;;;;;;;;5048383;28;20314;-64
2022/08/23 10:50:05;;;;;;;1.75;1.33;;;;;;;;;;5053433;28;20280;-63
2022/08/23 10:52:33;;;;;;;3.15;1.25;;;;;;;;;;5052907;28;20212;-65
2022/08/23 10:55:05;;;;;;;1.58;1.13;;;;;;;;;;5057361;28;20219;-64
2022/08/23 10:57:35;;;;;;;1.05;1.05;;;;;;;;;;5056240;28;20438;-63
2022/08/23 11:00:04;;;;;;;1.52;1.33;;;;;;;;;;5057649;28;20212;-64
2022/08/23 11:02:34;;;;;;;1.00;1.00;;;;;;;;;;5039311;28;20708;-64
2022/08/23 11:05:02;;;;;;;1.90;1.40;;;;;;;;;;5052128;28;20299;-64
2022/08/23 11:07:29;;;;;;;6.03;1.50;;;;;;;;;;5056561;28;20212;-63
2022/08/23 11:09:57;;;;;;;2.75;1.30;;;;;;;;;;5050844;28;20300;-64
2022/08/23 11:12:26;;;;;;;2.38;1.30;;;;;;;;;;5054965;28;20303;-64
2022/08/23 11:15:13;;;;;;;1.63;1.50;;;;;;;;;;5057387;28;20229;-64
2022/08/23 11:17:53;;;;;;;2.15;1.25;;;;;;;;;;5040659;28;20267;-63
2022/08/23 11:20:35;;;;;;;1.50;1.40;;;;;;;;;;5048607;28;20209;-64
2022/08/23 11:23:11;;;;;;;3.70;1.40;;;;;;;;;;5035958;28;20389;-64
2022/08/23 11:25:39;;;;;;;5.05;1.42;;;;;;;;;;5053084;28;20212;-64
2022/08/23 11:28:20;;;;;;;1.70;1.33;;;;;;;;;;5056272;28;20219;-64
2022/08/23 11:30:48;;;;;;;1.60;1.13;;;;;;;;;;5054334;28;20250;-65
2022/08/23 11:33:21;;;;;;;1.85;1.35;;;;;;;;;;5039916;28;20309;-65
2022/08/23 11:35:48;;;;;;;2.72;1.30;;;;;;;;;;5037264;28;20213;-65
2022/08/23 11:38:15;;;;;;;3.95;1.55;;;;;;;;;;5036694;28;20228;-64
2022/08/23 11:40:56;;;;;;;1.25;1.20;;;;;;;;;;5036811;28;20213;-65
2022/08/23 11:43:25;;;;;;;2.20;1.35;;;;;;;;;;5047605;28;20216;-65
2022/08/23 11:45:51;;;;;;;2.58;1.50;;;;;;;;;;5037798;28;20220;-64
2022/08/23 11:48:19;;;;;;;1.35;1.25;;;;;;;;;;5056285;28;20265;-64
2022/08/23 11:50:54;;;;;;;1.48;1.20;;;;;;;;;;5057041;28;20270;-64
2022/08/23 11:53:48;;;;;;;1.30;1.20;;;;;;;;;;5056589;28;20212;-64
2022/08/23 11:56:31;;;;;;;1.95;1.10;;;;;;;;;;5031431;28;20226;-65
2022/08/23 11:59:02;;;;;;;1.60;1.50;;;;;;;;;;5053518;28;20262;-63
2022/08/23 12:01:30;;;;;;;2.72;1.15;;;;;;;;;;5048029;28;20217;-63
2022/08/23 12:03:58;;;;;;;7.60;1.40;;;;;;;;;;5034778;28;20213;-62
2022/08/23 12:06:40;;;;;;;1.88;1.20;;;;;;;;;;5039621;28;20416;-61
2022/08/23 12:09:11;;;;;;;3.17;1.40;;;;;;;;;;5056605;28;20212;-64
2022/08/23 12:11:56;;;;;;;4.25;1.20;;;;;;;;;;5044505;28;20200;-63
2022/08/23 12:14:32;;;;;;;3.10;1.60;;;;;;;;;;5055246;28;20220;-63
2022/08/23 12:16:59;;;;;;;2.35;1.30;;;;;;;;;;5050267;28;20216;-63
2022/08/23 12:19:29;;;;;;;1.73;1.23;;;;;;;;;;5037436;28;20213;-64
2022/08/23 12:22:04;;;;;;;1.85;1.42;;;;;;;;;;5035057;28;20229;-62
2022/08/23 12:24:32;;;;;;;3.78;1.60;;;;;;;;;;5038622;28;20235;-63
2022/08/23 12:27:02;;;;;;;1.75;1.30;;;;;;;;;;5055227;28;20212;-63
2022/08/23 12:29:32;;;;;;;2.92;1.38;;;;;;;;;;5055044;28;20403;-64
2022/08/23 12:32:04;;;;;;;3.67;1.40;;;;;;;;;;5042114;28;20212;-64
2022/08/23 12:34:33;;;;;;;1.98;1.00;;;;;;;;;;5035323;28;20232;-64
2022/08/23 12:37:06;;;;;;;1.73;1.25;;;;;;;;;;5035007;28;20212;-64
2022/08/23 12:39:34;;;;;;;4.53;1.30;;;;;;;;;;5035589;28;20214;-64
2022/08/23 12:42:04;;;;;;;4.60;1.35;;;;;;;;;;5035479;28;20591;-63
2022/08/23 12:44:30;;;;;;;1.67;1.40;;;;;;;;;;5043392;28;20400;-69
2022/08/23 12:46:57;;;;;;;1.17;1.08;;;;;;;;;;5034843;28;20230;-69
2022/08/23 12:49:26;;;;;;;4.97;1.45;;;;;;;;;;5035437;28;20213;-69
2022/08/23 12:51:54;;;;;;;1.30;1.20;;;;;;;;;;5053358;28;20350;-69
2022/08/23 12:54:31;;;;;;;3.50;1.10;;;;;;;;;;5054632;28;20579;-69
2022/08/23 12:56:57;;;;;;;1.70;1.23;;;;;;;;;;5055142;28;20401;-69
2022/08/23 12:59:30;;;;;;;3.35;1.30;;;;;;;;;;5054453;28;20205;-69
2022/08/23 13:01:56;;;;;;;1.80;1.33;;;;;;;;;;5054905;28;20224;-69
2022/08/23 13:04:22;;;;;;;2.60;1.52;;;;;;;;;;5037184;28;20205;-69
2022/08/23 13:06:51;;;;;;;3.70;1.20;;;;;;;;;;5034434;28;20229;-69
2022/08/23 13:09:19;;;;;;;3.75;1.45;;;;;;;;;;5034779;28;20217;-69
2022/08/23 13:11:47;;;;;;;4.30;1.25;;;;;;;;;;5035275;28;20531;-69
2022/08/23 13:14:23;;;;;;;1.02;1.02;;;;;;;;;;5037798;28;20563;-69
2022/08/23 13:16:49;;;;;;;1.50;1.40;;;;;;;;;;5035305;28;20217;-69
2022/08/23 13:19:17;;;;;;;1.95;1.25;;;;;;;;;;5053953;28;20239;-69
2022/08/23 13:21:44;;;;;;;1.55;1.45;;;;;;;;;;5039261;28;20254;-69
2022/08/23 13:24:27;;;;;;;2.17;1.40;;;;;;;;;;5055230;28;20212;-69
2022/08/23 13:27:09;;;;;;;5.55;2.33;;;;;;;;;;5052969;28;20275;-69
2022/08/23 13:29:47;;;;;;;6.47;1.60;;;;;;;;;;5054152;28;20212;-69
2022/08/23 13:32:24;;;;;;;2.00;1.40;;;;;;;;;;5039995;28;20197;-69
2022/08/23 13:34:52;;;;;;;3.97;1.23;;;;;;;;;;5034759;28;20212;-69
2022/08/23 13:37:20;;;;;;;1.65;1.20;;;;;;;;;;5034318;28;20592;-69
2022/08/23 13:39:48;;;;;;;1.23;1.10;;;;;;;;;;5042345;28;20219;-70
2022/08/23 13:42:24;;;;;;;2.90;1.30;;;;;;;;;;5034348;28;20252;-69
2022/08/23 13:44:50;;;;;;;2.15;1.38;;;;;;;;;;5043732;28;20236;-69
2022/08/23 13:47:21;;;;;;;1.00;1.00;;;;;;;;;;5036304;28;20217;-69
2022/08/23 13:49:47;;;;;;;1.50;1.40;;;;;;;;;;5034479;28;20220;-69
2022/08/23 13:52:13;;;;;;;1.40;1.30;;;;;;;;;;5034663;28;20209;-69
2022/08/23 13:54:40;;;;;;;1.13;1.10;;;;;;;;;;5034651;28;20217;-69
2022/08/23 13:57:10;;;;;;;4.45;1.20;;;;;;;;;;5033668;28;20708;-69
2022/08/23 13:59:39;;;;;;;2.70;1.40;;;;;;;;;;5046762;28;20425;-69
2022/08/23 14:02:07;;;;;;;1.70;1.20;;;;;;;;;;5033696;28;20279;-69
2022/08/23 14:04:34;;;;;;;1.40;1.30;;;;;;;;;;5034560;28;20220;-69
2022/08/23 14:07:00;;;;;;;2.47;1.20;;;;;;;;;;5033524;28;20221;-69
2022/08/23 14:09:26;;;;;;;1.35;1.27;;;;;;;;;;5033843;28;20208;-69
2022/08/23 14:11:55;;;;;;;1.45;1.20;;;;;;;;;;5042646;28;20520;-69
2022/08/23 14:14:21;;;;;;;1.55;1.33;;;;;;;;;;5034136;28;20244;-70
2022/08/23 14:16:49;;;;;;;1.33;1.15;;;;;;;;;;5044026;28;20224;-70
2022/08/23 14:19:16;;;;;;;3.10;1.58;;;;;;;;;;5040931;28;20418;-70
2022/08/23 14:21:42;;;;;;;1.50;1.15;;;;;;;;;;5036857;28;20271;-70
2022/08/23 14:24:08;;;;;;;4.43;1.50;;;;;;;;;;5053378;28;20211;-70
2022/08/23 14:26:35;;;;;;;2.28;1.17;;;;;;;;;;5057947;28;20235;-69
2022/08/23 14:29:01;;;;;;;2.22;1.30;;;;;;;;;;5053506;28;20449;-69
2022/08/23 14:31:27;;;;;;;1.42;1.13;;;;;;;;;;5056088;28;20204;-69
2022/08/23 14:33:55;;;;;;;3.90;1.50;;;;;;;;;;5042312;28;20216;-69
2022/08/23 14:36:21;;;;;;;1.90;1.50;;;;;;;;;;5044091;28;20212;-69
2022/08/23 14:38:48;;;;;;;3.03;1.52;;;;;;;;;;5038132;28;20213;-69
2022/08/23 14:41:17;;;;;;;4.25;1.40;;;;;;;;;;5045065;28;20505;-70
2022/08/23 14:43:43;;;;;;;1.48;1.20;;;;;;;;;;5045971;28;20217;-70
2022/08/23 14:46:09;;;;;;;2.17;1.25;;;;;;;;;;5044688;28;20244;-70
2022/08/23 14:48:36;;;;;;;2.38;1.17;;;;;;;;;;5044207;28;20432;-69
2022/08/23 14:51:04;;;;;;;2.10;1.48;;;;;;;;;;5044759;28;20197;-70
2022/08/23 14:53:31;;;;;;;5.55;1.50;;;;;;;;;;5045401;28;20185;-70
2022/08/23 14:55:57;;;;;;;2.13;1.58;;;;;;;;;;5045396;28;20216;-69